sensor_id;sensor_type;location;lat;lon;timestamp;temperature;humidity
29547;DHT22;40782;47.264;11.330;2023-04-24T00:01:26;10.40;99.90
29547;DHT22;40782;47.264;11.330;2023-04-24T00:03:55;10.20;1.00
29547;DHT22;40782;47.264;11.330;2023-04-24T00:06:24;10.00;1.00
29547;DHT22;40782;47.264;11.330;2023-04-24T00:08:58;10.00;99.90
29547;DHT22;40782;47.264;11.330;2023-04-24T00:11:25;9.80;99.90
29547;DHT22;40782;47.264;11.330;2023-04-24T00:13:53;9.70;1.00
29547;DHT22;40782;47.264;11.330;2023-04-24T00:16:20;9.70;27.70
29547;DHT22;40782;47.264;11.330;2023-04-24T00:18:48;9.60;99.90
29547;DHT22;40782;47.264;11.330;2023-04-24T00:21:18;9.60;1.00
29547;DHT22;40782;47.264;11.330;2023-04-24T00:23:45;9.60;1.00
29547;DHT22;40782;47.264;11.330;2023-04-24T00:26:13;9.50;1.00
29547;DHT22;40782;47.264;11.330;2023-04-24T00:28:40;9.50;99.90
29547;DHT22;40782;47.264;11.330;2023-04-24T00:31:07;9.40;1.00
29547;DHT22;40782;47.264;11.330;2023-04-24T00:33:34;9.40;1.00
29547;DHT22;40782;47.264;11.330;2023-04-24T00:36:03;9.40;1.00
29547;DHT22;40782;47.264;11.330;2023-04-24T00:38:30;9.30;86.10
29547;DHT22;40782;47.264;11.330;2023-04-24T00:40:57;9.30;1.00
29547;DHT22;40782;47.264;11.330;2023-04-24T00:43:24;9.30;1.00
29547;DHT22;40782;47.264;11.330;2023-04-24T00:45:51;9.30;1.00
29547;DHT22;40782;47.264;11.330;2023-04-24T00:48:18;9.30;12.60
29547;DHT22;40782;47.264;11.330;2023-04-24T00:50:46;9.30;52.30
29547;DHT22;40782;47.264;11.330;2023-04-24T00:53:14;9.30;94.20
29547;DHT22;40782;47.264;11.330;2023-04-24T00:55:41;9.30;90.00
29547;DHT22;40782;47.264;11.330;2023-04-24T00:58:08;9.30;99.90
29547;DHT22;40782;47.264;11.330;2023-04-24T01:00:35;9.20;99.90
29547;DHT22;40782;47.264;11.330;2023-04-24T01:03:03;9.20;99.90
29547;DHT22;40782;47.264;11.330;2023-04-24T01:05:31;9.20;99.90
29547;DHT22;40782;47.264;11.330;2023-04-24T01:07:58;9.20;99.90
29547;DHT22;40782;47.264;11.330;2023-04-24T01:10:27;9.30;99.90
29547;DHT22;40782;47.264;11.330;2023-04-24T01:12:54;9.20;99.90
29547;DHT22;40782;47.264;11.330;2023-04-24T01:15:22;9.20;99.90
29547;DHT22;40782;47.264;11.330;2023-04-24T01:17:49;9.30;99.90
29547;DHT22;40782;47.264;11.330;2023-04-24T01:20:16;9.20;99.90
29547;DHT22;40782;47.264;11.330;2023-04-24T01:22:46;9.20;99.90
29547;DHT22;40782;47.264;11.330;2023-04-24T01:25:13;9.20;99.90
29547;DHT22;40782;47.264;11.330;2023-04-24T01:27:40;9.20;99.90
29547;DHT22;40782;47.264;11.330;2023-04-24T01:30:08;9.20;99.90
29547;DHT22;40782;47.264;11.330;2023-04-24T01:32:36;9.10;99.90
29547;DHT22;40782;47.264;11.330;2023-04-24T01:35:04;9.10;99.90
29547;DHT22;40782;47.264;11.330;2023-04-24T01:37:31;9.10;99.90
29547;DHT22;40782;47.264;11.330;2023-04-24T01:40:00;9.10;99.90
29547;DHT22;40782;47.264;11.330;2023-04-24T01:42:27;9.10;99.90
29547;DHT22;40782;47.264;11.330;2023-04-24T01:44:54;9.00;99.90
29547;DHT22;40782;47.264;11.330;2023-04-24T01:47:21;9.00;99.90
29547;DHT22;40782;47.264;11.330;2023-04-24T01:49:48;9.20;99.90
29547;DHT22;40782;47.264;11.330;2023-04-24T01:52:16;9.20;99.90
29547;DHT22;40782;47.264;11.330;2023-04-24T01:54:44;9.00;99.90
29547;DHT22;40782;47.264;11.330;2023-04-24T01:57:12;9.10;99.90
29547;DHT22;40782;47.264;11.330;2023-04-24T01:59:40;9.20;99.90
29547;DHT22;40782;47.264;11.330;2023-04-24T02:02:07;9.20;99.90
29547;DHT22;40782;47.264;11.330;2023-04-24T02:04:34;9.20;99.90
29547;DHT22;40782;47.264;11.330;2023-04-24T02:07:01;9.20;99.90
29547;DHT22;40782;47.264;11.330;2023-04-24T02:09:28;9.20;99.90
29547;DHT22;40782;47.264;11.330;2023-04-24T02:11:55;9.20;99.90
29547;DHT22;40782;47.264;11.330;2023-04-24T02:14:24;9.20;99.90
29547;DHT22;40782;47.264;11.330;2023-04-24T02:16:51;9.10;99.90
29547;DHT22;40782;47.264;11.330;2023-04-24T02:19:18;9.10;99.90
29547;DHT22;40782;47.264;11.330;2023-04-24T02:21:45;9.10;99.90
29547;DHT22;40782;47.264;11.330;2023-04-24T02:24:12;9.10;99.90
29547;DHT22;40782;47.264;11.330;2023-04-24T02:26:40;9.10;99.90
29547;DHT22;40782;47.264;11.330;2023-04-24T02:29:07;9.10;99.90
29547;DHT22;40782;47.264;11.330;2023-04-24T02:31:35;9.20;99.90
29547;DHT22;40782;47.264;11.330;2023-04-24T02:34:02;9.00;99.90
29547;DHT22;40782;47.264;11.330;2023-04-24T02:36:29;9.00;99.90
29547;DHT22;40782;47.264;11.330;2023-04-24T02:38:57;8.90;99.90
29547;DHT22;40782;47.264;11.330;2023-04-24T02:41:24;8.80;99.90
29547;DHT22;40782;47.264;11.330;2023-04-24T02:43:56;8.80;99.90
29547;DHT22;40782;47.264;11.330;2023-04-24T02:46:23;8.70;99.90
29547;DHT22;40782;47.264;11.330;2023-04-24T02:48:52;8.60;99.90
29547;DHT22;40782;47.264;11.330;2023-04-24T02:51:19;8.70;99.90
29547;DHT22;40782;47.264;11.330;2023-04-24T02:53:46;8.70;99.90
29547;DHT22;40782;47.264;11.330;2023-04-24T02:56:13;8.80;99.90
29547;DHT22;40782;47.264;11.330;2023-04-24T02:58:40;8.90;99.90
29547;DHT22;40782;47.264;11.330;2023-04-24T03:01:07;8.90;99.90
29547;DHT22;40782;47.264;11.330;2023-04-24T03:03:35;9.00;99.90
29547;DHT22;40782;47.264;11.330;2023-04-24T03:06:04;9.10;99.90
29547;DHT22;40782;47.264;11.330;2023-04-24T03:08:32;9.10;99.90
29547;DHT22;40782;47.264;11.330;2023-04-24T03:10:59;9.20;99.90
29547;DHT22;40782;47.264;11.330;2023-04-24T03:13:26;9.10;99.90
29547;DHT22;40782;47.264;11.330;2023-04-24T03:15:53;9.10;99.90
29547;DHT22;40782;47.264;11.330;2023-04-24T03:18:20;9.10;99.90
29547;DHT22;40782;47.264;11.330;2023-04-24T03:20:47;9.20;99.90
29547;DHT22;40782;47.264;11.330;2023-04-24T03:23:16;9.20;99.90
29547;DHT22;40782;47.264;11.330;2023-04-24T03:25:43;9.20;99.90
29547;DHT22;40782;47.264;11.330;2023-04-24T03:28:10;9.20;99.90
29547;DHT22;40782;47.264;11.330;2023-04-24T03:30:37;9.00;99.90
29547;DHT22;40782;47.264;11.330;2023-04-24T03:33:04;9.00;99.90
29547;DHT22;40782;47.264;11.330;2023-04-24T03:35:32;9.00;99.90
29547;DHT22;40782;47.264;11.330;2023-04-24T03:37:59;9.00;99.90
29547;DHT22;40782;47.264;11.330;2023-04-24T03:40:27;8.90;99.90
29547;DHT22;40782;47.264;11.330;2023-04-24T03:42:55;9.00;99.90
29547;DHT22;40782;47.264;11.330;2023-04-24T03:45:22;9.10;99.90
29547;DHT22;40782;47.264;11.330;2023-04-24T03:47:49;9.00;99.90
29547;DHT22;40782;47.264;11.330;2023-04-24T03:50:16;9.00;99.90
29547;DHT22;40782;47.264;11.330;2023-04-24T03:52:43;8.90;99.90
29547;DHT22;40782;47.264;11.330;2023-04-24T03:55:10;9.00;99.90
29547;DHT22;40782;47.264;11.330;2023-04-24T03:57:40;9.10;99.90
29547;DHT22;40782;47.264;11.330;2023-04-24T04:00:07;9.20;99.90
29547;DHT22;40782;47.264;11.330;2023-04-24T04:02:35;9.30;99.90
29547;DHT22;40782;47.264;11.330;2023-04-24T04:05:02;9.30;99.90
29547;DHT22;40782;47.264;11.330;2023-04-24T04:07:29;9.50;99.90
29547;DHT22;40782;47.264;11.330;2023-04-24T04:09:56;9.30;99.90
29547;DHT22;40782;47.264;11.330;2023-04-24T04:12:23;9.40;99.90
29547;DHT22;40782;47.264;11.330;2023-04-24T04:14:52;9.40;99.90
29547;DHT22;40782;47.264;11.330;2023-04-24T04:17:19;9.40;99.90
29547;DHT22;40782;47.264;11.330;2023-04-24T04:19:46;9.20;99.90
29547;DHT22;40782;47.264;11.330;2023-04-24T04:22:13;9.10;99.90
29547;DHT22;40782;47.264;11.330;2023-04-24T04:24:40;9.30;99.90
29547;DHT22;40782;47.264;11.330;2023-04-24T04:27:07;9.40;99.90
29547;DHT22;40782;47.264;11.330;2023-04-24T04:29:34;9.20;99.90
29547;DHT22;40782;47.264;11.330;2023-04-24T04:32:03;9.10;99.90
29547;DHT22;40782;47.264;11.330;2023-04-24T04:34:30;9.10;99.90
29547;DHT22;40782;47.264;11.330;2023-04-24T04:36:57;9.00;99.90
29547;DHT22;40782;47.264;11.330;2023-04-24T04:39:26;9.00;99.90
29547;DHT22;40782;47.264;11.330;2023-04-24T04:41:55;8.90;99.90
29547;DHT22;40782;47.264;11.330;2023-04-24T04:44:22;8.80;99.90
29547;DHT22;40782;47.264;11.330;2023-04-24T04:46:50;8.90;99.90
29547;DHT22;40782;47.264;11.330;2023-04-24T04:49:20;9.00;99.90
29547;DHT22;40782;47.264;11.330;2023-04-24T04:51:47;9.10;99.90
29547;DHT22;40782;47.264;11.330;2023-04-24T04:54:14;9.00;99.90
29547;DHT22;40782;47.264;11.330;2023-04-24T04:56:41;8.90;99.90
29547;DHT22;40782;47.264;11.330;2023-04-24T04:59:08;8.80;99.90
29547;DHT22;40782;47.264;11.330;2023-04-24T05:01:36;8.90;99.90
29547;DHT22;40782;47.264;11.330;2023-04-24T05:04:03;8.90;99.90
29547;DHT22;40782;47.264;11.330;2023-04-24T05:06:31;8.90;99.90
29547;DHT22;40782;47.264;11.330;2023-04-24T05:08:59;8.90;99.90
29547;DHT22;40782;47.264;11.330;2023-04-24T05:11:26;8.80;99.90
29547;DHT22;40782;47.264;11.330;2023-04-24T05:13:53;8.90;99.90
29547;DHT22;40782;47.264;11.330;2023-04-24T05:16:20;9.00;99.90
29547;DHT22;40782;47.264;11.330;2023-04-24T05:18:47;8.80;99.90
29547;DHT22;40782;47.264;11.330;2023-04-24T05:21:14;8.70;99.90
29547;DHT22;40782;47.264;11.330;2023-04-24T05:23:42;8.80;99.90
29547;DHT22;40782;47.264;11.330;2023-04-24T05:26:09;8.80;99.90
29547;DHT22;40782;47.264;11.330;2023-04-24T05:28:36;8.90;99.90
29547;DHT22;40782;47.264;11.330;2023-04-24T05:31:03;8.90;99.90
29547;DHT22;40782;47.264;11.330;2023-04-24T05:33:30;8.90;99.90
29547;DHT22;40782;47.264;11.330;2023-04-24T05:35:57;8.90;99.90
29547;DHT22;40782;47.264;11.330;2023-04-24T05:38:24;8.90;99.90
29547;DHT22;40782;47.264;11.330;2023-04-24T05:40:53;8.80;99.90
29547;DHT22;40782;47.264;11.330;2023-04-24T05:43:20;8.90;99.90
29547;DHT22;40782;47.264;11.330;2023-04-24T05:45:47;9.00;99.90
29547;DHT22;40782;47.264;11.330;2023-04-24T05:48:14;9.10;99.90
29547;DHT22;40782;47.264;11.330;2023-04-24T05:50:41;9.10;99.90
29547;DHT22;40782;47.264;11.330;2023-04-24T05:53:08;9.10;99.90
29547;DHT22;40782;47.264;11.330;2023-04-24T05:55:36;9.00;99.90
29547;DHT22;40782;47.264;11.330;2023-04-24T05:58:04;9.10;99.90
29547;DHT22;40782;47.264;11.330;2023-04-24T06:00:31;9.20;99.90
29547;DHT22;40782;47.264;11.330;2023-04-24T06:02:59;9.30;99.90
29547;DHT22;40782;47.264;11.330;2023-04-24T06:05:26;9.30;99.90
29547;DHT22;40782;47.264;11.330;2023-04-24T06:07:53;9.40;99.90
29547;DHT22;40782;47.264;11.330;2023-04-24T06:10:20;9.40;99.90
29547;DHT22;40782;47.264;11.330;2023-04-24T06:12:47;9.30;99.90
29547;DHT22;40782;47.264;11.330;2023-04-24T06:15:16;9.30;99.90
29547;DHT22;40782;47.264;11.330;2023-04-24T06:17:43;9.30;99.90
29547;DHT22;40782;47.264;11.330;2023-04-24T06:20:10;9.40;99.90
29547;DHT22;40782;47.264;11.330;2023-04-24T06:22:37;9.30;99.90
29547;DHT22;40782;47.264;11.330;2023-04-24T06:25:05;9.30;99.90
29547;DHT22;40782;47.264;11.330;2023-04-24T06:27:32;9.30;99.90
29547;DHT22;40782;47.264;11.330;2023-04-24T06:30:00;9.10;99.90
29547;DHT22;40782;47.264;11.330;2023-04-24T06:32:29;9.10;99.90
29547;DHT22;40782;47.264;11.330;2023-04-24T06:34:56;9.10;99.90
29547;DHT22;40782;47.264;11.330;2023-04-24T06:37:23;9.20;99.90
29547;DHT22;40782;47.264;11.330;2023-04-24T06:39:50;9.30;99.90
29547;DHT22;40782;47.264;11.330;2023-04-24T06:42:17;9.40;99.90
29547;DHT22;40782;47.264;11.330;2023-04-24T06:44:46;9.50;99.90
29547;DHT22;40782;47.264;11.330;2023-04-24T06:47:13;9.30;99.90
29547;DHT22;40782;47.264;11.330;2023-04-24T06:49:42;9.50;99.90
29547;DHT22;40782;47.264;11.330;2023-04-24T06:52:09;9.60;99.90
29547;DHT22;40782;47.264;11.330;2023-04-24T06:54:36;9.60;99.90
29547;DHT22;40782;47.264;11.330;2023-04-24T06:57:03;9.60;99.90
29547;DHT22;40782;47.264;11.330;2023-04-24T06:59:30;9.50;99.90
29547;DHT22;40782;47.264;11.330;2023-04-24T07:01:57;9.60;99.90
29547;DHT22;40782;47.264;11.330;2023-04-24T07:04:24;9.60;99.90
29547;DHT22;40782;47.264;11.330;2023-04-24T07:06:53;9.70;99.90
29547;DHT22;40782;47.264;11.330;2023-04-24T07:09:21;9.80;99.90
29547;DHT22;40782;47.264;11.330;2023-04-24T07:11:49;9.80;99.90
29547;DHT22;40782;47.264;11.330;2023-04-24T07:14:16;9.80;99.90
29547;DHT22;40782;47.264;11.330;2023-04-24T07:16:44;9.80;48.50
29547;DHT22;40782;47.264;11.330;2023-04-24T07:19:11;9.80;23.10
29547;DHT22;40782;47.264;11.330;2023-04-24T07:21:38;9.90;23.00
29547;DHT22;40782;47.264;11.330;2023-04-24T07:24:07;9.90;6.60
29547;DHT22;40782;47.264;11.330;2023-04-24T07:26:36;9.70;1.00
29547;DHT22;40782;47.264;11.330;2023-04-24T07:29:03;9.80;1.00
29547;DHT22;40782;47.264;11.330;2023-04-24T07:31:30;9.90;1.00
29547;DHT22;40782;47.264;11.330;2023-04-24T07:33:57;9.80;1.00
29547;DHT22;40782;47.264;11.330;2023-04-24T07:36:24;9.90;1.00
29547;DHT22;40782;47.264;11.330;2023-04-24T07:38:52;9.90;1.00
29547;DHT22;40782;47.264;11.330;2023-04-24T07:41:20;10.00;1.00
29547;DHT22;40782;47.264;11.330;2023-04-24T07:43:48;10.00;1.00
29547;DHT22;40782;47.264;11.330;2023-04-24T07:46:15;10.00;1.00
29547;DHT22;40782;47.264;11.330;2023-04-24T07:48:42;10.00;1.00
29547;DHT22;40782;47.264;11.330;2023-04-24T07:51:09;10.00;1.00
29547;DHT22;40782;47.264;11.330;2023-04-24T07:53:39;10.00;1.00
29547;DHT22;40782;47.264;11.330;2023-04-24T07:56:06;10.20;1.00
29547;DHT22;40782;47.264;11.330;2023-04-24T07:58:34;10.30;1.00
29547;DHT22;40782;47.264;11.330;2023-04-24T08:01:01;10.30;1.00
29547;DHT22;40782;47.264;11.330;2023-04-24T08:03:28;10.40;1.00
29547;DHT22;40782;47.264;11.330;2023-04-24T08:05:55;10.50;1.00
29547;DHT22;40782;47.264;11.330;2023-04-24T08:08:22;10.60;1.00
29547;DHT22;40782;47.264;11.330;2023-04-24T08:10:49;10.60;1.00
29547;DHT22;40782;47.264;11.330;2023-04-24T08:13:16;10.70;1.00
29547;DHT22;40782;47.264;11.330;2023-04-24T08:15:45;10.80;1.00
29547;DHT22;40782;47.264;11.330;2023-04-24T08:18:12;10.90;1.00
29547;DHT22;40782;47.264;11.330;2023-04-24T08:20:41;11.00;99.90
29547;DHT22;40782;47.264;11.330;2023-04-24T08:23:08;11.00;99.60
29547;DHT22;40782;47.264;11.330;2023-04-24T08:25:35;11.00;1.00
29547;DHT22;40782;47.264;11.330;2023-04-24T08:28:02;11.20;1.00
29547;DHT22;40782;47.264;11.330;2023-04-24T08:30:29;11.20;99.90
29547;DHT22;40782;47.264;11.330;2023-04-24T08:32:58;11.20;1.00
29547;DHT22;40782;47.264;11.330;2023-04-24T08:35:25;11.30;1.00
29547;DHT22;40782;47.264;11.330;2023-04-24T08:37:53;11.50;87.30
29547;DHT22;40782;47.264;11.330;2023-04-24T08:40:21;11.50;1.00
29547;DHT22;40782;47.264;11.330;2023-04-24T08:42:49;11.40;1.00
29547;DHT22;40782;47.264;11.330;2023-04-24T08:45:17;11.60;1.00
29547;DHT22;40782;47.264;11.330;2023-04-24T08:47:44;11.70;1.00
29547;DHT22;40782;47.264;11.330;2023-04-24T08:50:12;11.60;1.00
29547;DHT22;40782;47.264;11.330;2023-04-24T08:52:40;11.60;1.00
29547;DHT22;40782;47.264;11.330;2023-04-24T08:55:08;11.70;1.00
29547;DHT22;40782;47.264;11.330;2023-04-24T08:57:36;11.80;1.00
29547;DHT22;40782;47.264;11.330;2023-04-24T09:00:06;11.90;1.00
29547;DHT22;40782;47.264;11.330;2023-04-24T09:02:33;11.90;1.00
29547;DHT22;40782;47.264;11.330;2023-04-24T09:05:01;11.70;1.00
29547;DHT22;40782;47.264;11.330;2023-04-24T09:07:30;11.80;1.00
29547;DHT22;40782;47.264;11.330;2023-04-24T09:09:58;12.10;1.00
29547;DHT22;40782;47.264;11.330;2023-04-24T09:12:26;12.30;1.00
29547;DHT22;40782;47.264;11.330;2023-04-24T09:14:53;12.30;1.00
29547;DHT22;40782;47.264;11.330;2023-04-24T09:17:20;12.20;99.90
29547;DHT22;40782;47.264;11.330;2023-04-24T09:19:48;12.40;1.00
29547;DHT22;40782;47.264;11.330;2023-04-24T09:22:15;12.50;1.00
29547;DHT22;40782;47.264;11.330;2023-04-24T09:24:44;12.70;99.90
29547;DHT22;40782;47.264;11.330;2023-04-24T09:27:12;12.60;99.90
29547;DHT22;40782;47.264;11.330;2023-04-24T09:29:47;12.70;99.90
29547;DHT22;40782;47.264;11.330;2023-04-24T09:32:20;12.90;99.90
29547;DHT22;40782;47.264;11.330;2023-04-24T09:34:48;12.50;1.00
29547;DHT22;40782;47.264;11.330;2023-04-24T09:37:27;12.40;99.90
29547;DHT22;40782;47.264;11.330;2023-04-24T09:40:08;12.70;1.00
29547;DHT22;40782;47.264;11.330;2023-04-24T09:42:35;12.70;99.90
29547;DHT22;40782;47.264;11.330;2023-04-24T09:45:04;12.80;99.90
29547;DHT22;40782;47.264;11.330;2023-04-24T09:47:35;12.80;99.90
29547;DHT22;40782;47.264;11.330;2023-04-24T09:50:08;12.60;1.00
29547;DHT22;40782;47.264;11.330;2023-04-24T09:52:35;12.90;39.50
29547;DHT22;40782;47.264;11.330;2023-04-24T09:55:03;12.90;1.00
29547;DHT22;40782;47.264;11.330;2023-04-24T09:57:42;12.80;1.00
29547;DHT22;40782;47.264;11.330;2023-04-24T10:00:13;12.90;1.00
29547;DHT22;40782;47.264;11.330;2023-04-24T10:02:44;13.10;1.00
29547;DHT22;40782;47.264;11.330;2023-04-24T10:05:11;13.30;99.90
29547;DHT22;40782;47.264;11.330;2023-04-24T10:07:40;13.70;1.00
29547;DHT22;40782;47.264;11.330;2023-04-24T10:10:07;13.50;1.00
29547;DHT22;40782;47.264;11.330;2023-04-24T10:12:34;13.40;1.00
29547;DHT22;40782;47.264;11.330;2023-04-24T10:15:03;13.50;1.00
29547;DHT22;40782;47.264;11.330;2023-04-24T10:17:31;13.60;1.00
29547;DHT22;40782;47.264;11.330;2023-04-24T10:19:58;13.70;1.00
29547;DHT22;40782;47.264;11.330;2023-04-24T10:22:27;13.80;1.00
29547;DHT22;40782;47.264;11.330;2023-04-24T10:24:55;13.90;1.00
29547;DHT22;40782;47.264;11.330;2023-04-24T10:27:23;14.00;1.00
29547;DHT22;40782;47.264;11.330;2023-04-24T10:29:52;14.40;1.00
29547;DHT22;40782;47.264;11.330;2023-04-24T10:32:21;14.50;1.00
29547;DHT22;40782;47.264;11.330;2023-04-24T10:34:48;14.80;1.00
29547;DHT22;40782;47.264;11.330;2023-04-24T10:37:15;14.70;1.00
29547;DHT22;40782;47.264;11.330;2023-04-24T10:39:42;14.80;1.00
29547;DHT22;40782;47.264;11.330;2023-04-24T10:42:15;15.40;1.00
29547;DHT22;40782;47.264;11.330;2023-04-24T10:44:43;15.50;1.00
29547;DHT22;40782;47.264;11.330;2023-04-24T10:47:12;15.70;1.00
29547;DHT22;40782;47.264;11.330;2023-04-24T10:49:41;15.70;1.00
29547;DHT22;40782;47.264;11.330;2023-04-24T10:52:08;15.90;1.00
29547;DHT22;40782;47.264;11.330;2023-04-24T10:54:36;16.10;1.00
29547;DHT22;40782;47.264;11.330;2023-04-24T10:57:26;16.10;1.00
29547;DHT22;40782;47.264;11.330;2023-04-24T11:00:09;16.10;1.00
29547;DHT22;40782;47.264;11.330;2023-04-24T11:02:38;16.40;1.00
29547;DHT22;40782;47.264;11.330;2023-04-24T11:05:08;16.90;1.00
29547;DHT22;40782;47.264;11.330;2023-04-24T11:10:24;17.20;1.00
29547;DHT22;40782;47.264;11.330;2023-04-24T11:12:51;17.10;1.00
29547;DHT22;40782;47.264;11.330;2023-04-24T11:15:18;16.90;1.00
29547;DHT22;40782;47.264;11.330;2023-04-24T11:17:46;17.00;1.00
29547;DHT22;40782;47.264;11.330;2023-04-24T11:20:16;16.70;1.00
29547;DHT22;40782;47.264;11.330;2023-04-24T11:22:43;16.50;1.00
29547;DHT22;40782;47.264;11.330;2023-04-24T11:25:10;16.00;1.00
29547;DHT22;40782;47.264;11.330;2023-04-24T11:27:38;16.00;1.00
29547;DHT22;40782;47.264;11.330;2023-04-24T11:30:06;15.90;1.00
29547;DHT22;40782;47.264;11.330;2023-04-24T11:32:35;15.80;1.00
29547;DHT22;40782;47.264;11.330;2023-04-24T11:35:03;15.60;1.00
29547;DHT22;40782;47.264;11.330;2023-04-24T11:37:34;15.20;1.00
29547;DHT22;40782;47.264;11.330;2023-04-24T11:40:02;15.30;1.00
29547;DHT22;40782;47.264;11.330;2023-04-24T11:42:33;15.50;1.00
29547;DHT22;40782;47.264;11.330;2023-04-24T11:45:00;15.30;1.00
29547;DHT22;40782;47.264;11.330;2023-04-24T11:47:28;15.30;1.00
29547;DHT22;40782;47.264;11.330;2023-04-24T11:49:55;15.30;1.00
29547;DHT22;40782;47.264;11.330;2023-04-24T11:52:22;15.80;1.00
29547;DHT22;40782;47.264;11.330;2023-04-24T11:54:50;16.50;1.00
29547;DHT22;40782;47.264;11.330;2023-04-24T11:57:19;17.20;1.00
29547;DHT22;40782;47.264;11.330;2023-04-24T11:59:46;17.70;1.00
29547;DHT22;40782;47.264;11.330;2023-04-24T12:02:19;17.80;1.00
29547;DHT22;40782;47.264;11.330;2023-04-24T12:04:47;17.80;1.00
29547;DHT22;40782;47.264;11.330;2023-04-24T12:07:14;18.00;1.00
29547;DHT22;40782;47.264;11.330;2023-04-24T12:09:41;17.80;1.00
29547;DHT22;40782;47.264;11.330;2023-04-24T12:12:10;17.80;99.90
29547;DHT22;40782;47.264;11.330;2023-04-24T12:14:44;17.80;99.90
29547;DHT22;40782;47.264;11.330;2023-04-24T12:17:11;17.90;99.90
29547;DHT22;40782;47.264;11.330;2023-04-24T12:19:44;18.10;99.90
29547;DHT22;40782;47.264;11.330;2023-04-24T12:22:11;17.80;99.90
29547;DHT22;40782;47.264;11.330;2023-04-24T12:27:22;18.20;99.90
29547;DHT22;40782;47.264;11.330;2023-04-24T12:29:52;18.50;99.90
29547;DHT22;40782;47.264;11.330;2023-04-24T12:32:20;18.50;99.90
29547;DHT22;40782;47.264;11.330;2023-04-24T12:34:47;18.20;99.90
29547;DHT22;40782;47.264;11.330;2023-04-24T12:37:14;18.00;99.90
29547;DHT22;40782;47.264;11.330;2023-04-24T12:39:44;17.80;99.90
29547;DHT22;40782;47.264;11.330;2023-04-24T12:42:11;17.90;99.90
29547;DHT22;40782;47.264;11.330;2023-04-24T12:44:40;17.60;99.90
29547;DHT22;40782;47.264;11.330;2023-04-24T12:47:07;17.60;99.90
29547;DHT22;40782;47.264;11.330;2023-04-24T12:49:34;17.50;99.90
29547;DHT22;40782;47.264;11.330;2023-04-24T12:52:01;17.80;99.90
29547;DHT22;40782;47.264;11.330;2023-04-24T12:54:31;18.40;99.90
29547;DHT22;40782;47.264;11.330;2023-04-24T12:56:58;19.10;99.90
29547;DHT22;40782;47.264;11.330;2023-04-24T12:59:26;19.70;99.90
29547;DHT22;40782;47.264;11.330;2023-04-24T13:01:54;20.40;99.90
29547;DHT22;40782;47.264;11.330;2023-04-24T13:04:21;20.70;99.90
29547;DHT22;40782;47.264;11.330;2023-04-24T13:06:48;21.50;99.90
29547;DHT22;40782;47.264;11.330;2023-04-24T13:09:16;22.30;99.90
29547;DHT22;40782;47.264;11.330;2023-04-24T13:11:43;22.50;99.90
29547;DHT22;40782;47.264;11.330;2023-04-24T13:14:10;22.30;99.90
29547;DHT22;40782;47.264;11.330;2023-04-24T13:16:37;21.60;99.90
29547;DHT22;40782;47.264;11.330;2023-04-24T13:19:05;21.20;99.90
29547;DHT22;40782;47.264;11.330;2023-04-24T13:21:32;22.00;99.90
29547;DHT22;40782;47.264;11.330;2023-04-24T13:23:59;22.30;99.90
29547;DHT22;40782;47.264;11.330;2023-04-24T13:26:26;21.90;99.90
29547;DHT22;40782;47.264;11.330;2023-04-24T13:28:53;21.80;99.90
29547;DHT22;40782;47.264;11.330;2023-04-24T13:31:20;21.50;99.90
29547;DHT22;40782;47.264;11.330;2023-04-24T13:33:47;22.60;99.90
29547;DHT22;40782;47.264;11.330;2023-04-24T13:36:16;22.50;99.90
29547;DHT22;40782;47.264;11.330;2023-04-24T13:38:43;21.30;99.90
29547;DHT22;40782;47.264;11.330;2023-04-24T13:41:10;21.10;99.90
29547;DHT22;40782;47.264;11.330;2023-04-24T13:43:37;20.10;99.90
29547;DHT22;40782;47.264;11.330;2023-04-24T13:46:04;20.50;99.90
29547;DHT22;40782;47.264;11.330;2023-04-24T13:48:31;20.30;99.90
29547;DHT22;40782;47.264;11.330;2023-04-24T13:50:58;20.30;99.90
29547;DHT22;40782;47.264;11.330;2023-04-24T13:53:27;20.30;99.90
29547;DHT22;40782;47.264;11.330;2023-04-24T13:55:54;21.20;99.90
29547;DHT22;40782;47.264;11.330;2023-04-24T13:58:21;21.50;99.90
29547;DHT22;40782;47.264;11.330;2023-04-24T14:00:48;21.00;99.90
29547;DHT22;40782;47.264;11.330;2023-04-24T14:03:15;20.20;99.90
29547;DHT22;40782;47.264;11.330;2023-04-24T14:05:42;19.10;99.90
29547;DHT22;40782;47.264;11.330;2023-04-24T14:08:09;18.70;99.90
29547;DHT22;40782;47.264;11.330;2023-04-24T14:10:38;18.10;99.90
29547;DHT22;40782;47.264;11.330;2023-04-24T14:13:05;17.90;99.90
29547;DHT22;40782;47.264;11.330;2023-04-24T14:15:32;17.60;99.90
29547;DHT22;40782;47.264;11.330;2023-04-24T14:17:59;17.40;99.90
29547;DHT22;40782;47.264;11.330;2023-04-24T14:20:26;17.00;99.90
29547;DHT22;40782;47.264;11.330;2023-04-24T14:22:53;16.90;99.90
29547;DHT22;40782;47.264;11.330;2023-04-24T14:25:20;17.40;99.90
29547;DHT22;40782;47.264;11.330;2023-04-24T14:27:49;17.50;99.90
29547;DHT22;40782;47.264;11.330;2023-04-24T14:30:16;17.20;99.90
29547;DHT22;40782;47.264;11.330;2023-04-24T14:32:43;17.30;99.90
29547;DHT22;40782;47.264;11.330;2023-04-24T14:35:10;17.60;99.90
29547;DHT22;40782;47.264;11.330;2023-04-24T14:37:38;17.90;99.90
29547;DHT22;40782;47.264;11.330;2023-04-24T14:40:07;18.10;99.90
29547;DHT22;40782;47.264;11.330;2023-04-24T14:42:34;18.30;99.90
29547;DHT22;40782;47.264;11.330;2023-04-24T14:45:03;18.60;99.90
29547;DHT22;40782;47.264;11.330;2023-04-24T14:47:30;18.80;99.90
29547;DHT22;40782;47.264;11.330;2023-04-24T14:49:58;18.70;99.90
29547;DHT22;40782;47.264;11.330;2023-04-24T14:52:25;18.80;99.90
29547;DHT22;40782;47.264;11.330;2023-04-24T14:54:52;19.00;99.90
29547;DHT22;40782;47.264;11.330;2023-04-24T14:57:19;18.30;99.90
29547;DHT22;40782;47.264;11.330;2023-04-24T14:59:46;18.10;99.90
29547;DHT22;40782;47.264;11.330;2023-04-24T15:02:14;18.10;99.90
29547;DHT22;40782;47.264;11.330;2023-04-24T15:04:41;18.20;99.90
29547;DHT22;40782;47.264;11.330;2023-04-24T15:07:09;18.40;99.90
29547;DHT22;40782;47.264;11.330;2023-04-24T15:09:36;18.10;99.90
29547;DHT22;40782;47.264;11.330;2023-04-24T15:12:03;18.10;99.90
29547;DHT22;40782;47.264;11.330;2023-04-24T15:14:30;18.10;99.90
29547;DHT22;40782;47.264;11.330;2023-04-24T15:16:57;18.00;99.90
29547;DHT22;40782;47.264;11.330;2023-04-24T15:19:26;17.60;99.90
29547;DHT22;40782;47.264;11.330;2023-04-24T15:21:53;17.40;99.90
29547;DHT22;40782;47.264;11.330;2023-04-24T15:24:20;16.90;99.90
29547;DHT22;40782;47.264;11.330;2023-04-24T15:26:47;16.60;99.90
29547;DHT22;40782;47.264;11.330;2023-04-24T15:29:14;16.40;99.90
29547;DHT22;40782;47.264;11.330;2023-04-24T15:31:41;16.30;99.90
29547;DHT22;40782;47.264;11.330;2023-04-24T15:34:08;16.20;99.90
29547;DHT22;40782;47.264;11.330;2023-04-24T15:36:36;16.00;99.90